Time;durP1;ratioP1;P1;durP2;ratioP2;P2;SDS_P1;SDS_P2;PMS_P1;PMS_P2;Temp;Humidity;BMP_temperature;BMP_pressure;BME280_temperature;BME280_humidity;BME280_pressure;Samples;Min_cycle;Max_cycle;Signal;HPM_P1;HPM_P2
2020/12/12 00:01:39;;;;;;;59.20;23.23;;;;;;;1.14;85.91;99319.69;5099177;28;20568;-61
2020/12/12 00:04:06;;;;;;;74.20;24.47;;;;;;;1.06;85.85;99331.06;5097057;28;20606;-62
2020/12/12 00:06:32;;;;;;;67.13;27.00;;;;;;;1.09;86.04;99326.16;5099053;28;20461;-62
2020/12/12 00:08:59;;;;;;;73.50;22.63;;;;;;;1.26;85.44;99323.66;5097199;28;20482;-62
2020/12/12 00:11:27;;;;;;;68.27;24.10;;;;;;;1.09;85.78;99323.63;5099019;28;20523;-61
2020/12/12 00:13:53;;;;;;;69.43;23.80;;;;;;;1.14;85.51;99318.78;5097103;28;20531;-62
2020/12/12 00:16:20;;;;;;;70.00;26.17;;;;;;;1.09;85.75;99316.00;5098725;28;20487;-62
2020/12/12 00:18:47;;;;;;;76.30;27.20;;;;;;;1.05;85.84;99314.94;5097463;28;20478;-61
2020/12/12 00:21:14;;;;;;;72.20;23.20;;;;;;;0.99;85.95;99319.69;5098709;28;20210;-62
2020/12/12 00:23:41;;;;;;;70.07;26.42;;;;;;;1.00;86.19;99313.81;5097280;28;20532;-62
2020/12/12 00:26:07;;;;;;;74.20;25.87;;;;;;;1.03;86.07;99315.66;5098434;28;20230;-62
2020/12/12 00:28:35;;;;;;;72.20;25.33;;;;;;;1.05;85.78;99314.06;5097039;28;20459;-62
2020/12/12 00:31:02;;;;;;;66.57;25.40;;;;;;;1.03;85.74;99313.09;5097947;28;20200;-62
2020/12/12 00:33:28;;;;;;;66.40;20.13;;;;;;;1.01;85.89;99317.19;5096782;28;20734;-62
2020/12/12 00:35:55;;;;;;;69.40;24.70;;;;;;;1.02;85.91;99313.91;5098339;28;20484;-62
2020/12/12 00:38:21;;;;;;;75.50;25.20;;;;;;;1.15;85.12;99311.25;5097236;28;20456;-62
2020/12/12 00:40:56;;;;;;;65.80;24.40;;;;;;;1.17;85.17;99308.78;5098553;28;20200;-62
2020/12/12 00:43:23;;;;;;;71.77;23.83;;;;;;;0.96;85.96;99308.47;5096532;28;20488;-62
2020/12/12 00:45:51;;;;;;;68.72;24.73;;;;;;;1.00;85.67;99303.66;5097776;28;20505;-62
2020/12/12 00:48:19;;;;;;;73.20;25.37;;;;;;;1.11;85.68;99305.91;5096891;28;20260;-62
2020/12/12 00:50:46;;;;;;;66.57;24.53;;;;;;;1.12;85.00;99308.53;5098121;28;20464;-62
2020/12/12 00:53:13;;;;;;;65.27;25.50;;;;;;;1.04;85.53;99307.22;5096537;28;20459;-62
2020/12/12 00:55:39;;;;;;;63.05;23.73;;;;;;;1.10;85.57;99312.66;5097617;28;20484;-62
2020/12/12 00:58:06;;;;;;;71.83;25.40;;;;;;;1.07;85.34;99313.34;5096267;28;20565;-62
2020/12/12 01:00:33;;;;;;;75.20;25.60;;;;;;;1.01;85.28;99307.03;5098003;28;20431;-62
2020/12/12 01:03:01;;;;;;;72.80;25.33;;;;;;;1.16;85.11;99310.47;5095265;28;20470;-62
2020/12/12 01:05:28;;;;;;;74.78;26.33;;;;;;;1.07;85.46;99312.47;5097525;28;20478;-62
2020/12/12 01:07:55;;;;;;;78.70;25.00;;;;;;;1.13;84.98;99307.72;5096678;28;20287;-62
2020/12/12 01:10:23;;;;;;;63.87;25.07;;;;;;;1.12;84.97;99307.69;5097899;28;20458;-62
2020/12/12 01:12:50;;;;;;;82.30;27.33;;;;;;;0.85;85.54;99306.19;5090969;28;20835;-62
2020/12/12 01:15:17;;;;;;;73.80;25.13;;;;;;;0.99;85.45;99306.97;5096250;28;20584;-62
2020/12/12 01:17:44;;;;;;;55.23;21.53;;;;;;;0.97;85.42;99305.13;5094665;28;20460;-62
2020/12/12 01:20:12;;;;;;;67.63;26.70;;;;;;;1.07;85.27;99302.31;5096148;28;20543;-62
2020/12/12 01:22:39;;;;;;;70.30;24.60;;;;;;;1.20;84.64;99304.78;5094724;28;20539;-62
2020/12/12 01:25:06;;;;;;;73.50;25.50;;;;;;;0.96;85.06;99308.47;5095546;28;20456;-62
2020/12/12 01:27:33;;;;;;;66.97;25.90;;;;;;;1.03;84.90;99300.41;5096194;28;20436;-62
2020/12/12 01:30:00;;;;;;;71.85;25.13;;;;;;;0.91;85.18;99306.53;5094438;28;20242;-62
2020/12/12 01:32:26;;;;;;;67.93;24.43;;;;;;;1.05;85.15;99308.97;5096282;28;20206;-62
2020/12/12 01:34:53;;;;;;;63.17;23.87;;;;;;;1.01;85.06;99300.31;5093984;28;21203;-62
2020/12/12 01:37:24;;;;;;;75.10;26.80;;;;;;;1.03;84.90;99302.94;5095788;28;20465;-62
2020/12/12 01:39:51;;;;;;;60.63;23.57;;;;;;;1.09;84.89;99308.38;5094219;28;20565;-62
2020/12/12 01:42:17;;;;;;;73.63;24.42;;;;;;;1.03;84.90;99303.81;5095946;28;20765;-62
2020/12/12 01:44:44;;;;;;;65.73;25.30;;;;;;;1.01;85.03;99312.13;5094025;28;20599;-62
2020/12/12 01:47:11;;;;;;;72.03;27.07;;;;;;;0.96;85.20;99300.84;5096270;28;20454;-62
2020/12/12 01:49:38;;;;;;;77.27;25.10;;;;;;;0.98;85.24;99299.25;5094431;28;20452;-62
2020/12/12 01:52:06;;;;;;;59.07;24.53;;;;;;;0.89;85.35;99305.59;5096075;28;20521;-62
2020/12/12 01:54:33;;;;;;;72.10;25.70;;;;;;;0.93;85.04;99306.63;5094306;28;20515;-62
2020/12/12 01:57:03;;;;;;;66.27;22.70;;;;;;;0.79;85.10;99303.28;5096387;28;20429;-62
2020/12/12 01:59:30;;;;;;;67.00;26.23;;;;;;;0.80;85.78;99307.56;5098260;28;20491;-62
2020/12/12 02:01:57;;;;;;;71.90;26.20;;;;;;;0.83;85.87;99305.22;5090390;28;20556;-62
2020/12/12 02:04:25;;;;;;;62.00;25.77;;;;;;;0.95;85.45;99310.13;5074873;28;20830;-62
2020/12/12 02:06:52;;;;;;;70.50;25.20;;;;;;;0.82;85.56;99305.13;5076664;28;20291;-62
2020/12/12 02:09:19;;;;;;;68.35;24.30;;;;;;;0.93;85.34;99310.03;5075322;28;20888;-62
2020/12/12 02:11:46;;;;;;;71.60;26.00;;;;;;;0.90;85.37;99299.72;5076748;28;20672;-62
2020/12/12 02:14:14;;;;;;;64.40;26.10;;;;;;;0.99;85.29;99309.53;5074365;28;20458;-62
2020/12/12 02:16:54;;;;;;;63.30;24.33;;;;;;;1.02;84.97;99314.75;5076861;28;20207;-62
2020/12/12 02:19:21;;;;;;;72.37;24.70;;;;;;;1.06;84.82;99303.09;5075125;28;20525;-62
2020/12/12 02:21:53;;;;;;;68.30;23.30;;;;;;;1.01;84.97;99312.13;5076480;28;20522;-62
2020/12/12 02:24:20;;;;;;;70.10;25.33;;;;;;;0.88;85.30;99308.88;5074285;28;20509;-62
2020/12/12 02:26:47;;;;;;;61.97;24.20;;;;;;;1.02;85.03;99307.13;5076505;28;20206;-61
2020/12/12 02:29:14;;;;;;;66.33;25.27;;;;;;;0.94;85.02;99309.22;5074700;28;20566;-62
2020/12/12 02:31:41;;;;;;;64.20;26.00;;;;;;;1.03;85.03;99305.47;5093367;28;20435;-62
2020/12/12 02:34:08;;;;;;;56.07;24.03;;;;;;;1.20;84.27;99304.78;5094312;28;20936;-62
2020/12/12 02:36:36;;;;;;;60.95;24.55;;;;;;;1.12;84.76;99310.22;5096696;28;20751;-62
2020/12/12 02:39:04;;;;;;;62.97;25.13;;;;;;;1.03;84.55;99311.44;5094938;28;20661;-62
2020/12/12 02:41:31;;;;;;;66.33;26.73;;;;;;;0.96;85.19;99303.38;5096615;28;20200;-62
2020/12/12 02:43:57;;;;;;;63.10;26.00;;;;;;;0.96;85.00;99305.94;5094141;28;20449;-62
2020/12/12 02:46:24;;;;;;;59.07;23.90;;;;;;;0.89;85.15;99308.13;5096072;28;20540;-62
2020/12/12 02:48:51;;;;;;;66.13;25.98;;;;;;;0.92;85.25;99309.97;5094790;28;20457;-62
2020/12/12 02:51:18;;;;;;;68.90;26.90;;;;;;;0.92;85.22;99304.88;5096386;28;20517;-62
2020/12/12 02:53:45;;;;;;;75.80;27.00;;;;;;;0.97;85.07;99305.13;5094193;28;20555;-62
2020/12/12 02:56:14;;;;;;;57.40;24.73;;;;;;;0.97;84.78;99313.63;5095747;28;20730;-62
2020/12/12 02:58:41;;;;;;;66.68;24.98;;;;;;;0.96;84.72;99316.94;5094663;28;20460;-62
2020/12/12 03:01:07;;;;;;;76.07;26.30;;;;;;;1.04;84.71;99312.31;5078323;28;20298;-62
2020/12/12 03:03:34;;;;;;;62.38;25.88;;;;;;;1.02;84.79;99318.97;5074547;28;20240;-62
2020/12/12 03:06:04;;;;;;;76.90;25.55;;;;;;;0.97;84.73;99326.31;5075808;28;20232;-62
2020/12/12 03:08:30;;;;;;;69.00;25.98;;;;;;;0.89;84.99;99310.66;5074347;28;20246;-61
2020/12/12 03:10:57;;;;;;;66.82;26.00;;;;;;;0.96;84.90;99323.72;5076076;28;20204;-62
2020/12/12 03:13:24;;;;;;;70.45;26.52;;;;;;;1.03;84.56;99323.28;5074500;28;20501;-62
2020/12/12 03:15:51;;;;;;;63.80;26.30;;;;;;;0.93;84.99;99315.09;5075465;28;20227;-62
2020/12/12 03:18:18;;;;;;;68.13;25.70;;;;;;;0.95;84.51;99317.75;5074194;28;20237;-62
2020/12/12 03:20:45;;;;;;;65.03;22.93;;;;;;;0.93;84.39;99312.56;5075931;28;20432;-62
2020/12/12 03:23:12;;;;;;;73.30;25.08;;;;;;;0.79;85.08;99315.97;5074378;28;20830;-62
2020/12/12 03:25:39;;;;;;;59.00;22.53;;;;;;;0.91;85.05;99315.81;5077059;28;20224;-62
2020/12/12 03:28:06;;;;;;;64.50;24.35;;;;;;;0.88;84.97;99316.50;5078613;28;20475;-62
2020/12/12 03:30:36;;;;;;;70.10;25.23;;;;;;;0.79;85.18;99313.44;5079099;28;20239;-62
2020/12/12 03:33:03;;;;;;;61.83;23.67;;;;;;;0.87;85.29;99316.44;5078271;28;20338;-62
2020/12/12 03:35:31;;;;;;;72.93;27.30;;;;;;;0.92;84.82;99323.53;5079385;28;20473;-62
2020/12/12 03:37:58;;;;;;;66.13;25.63;;;;;;;0.88;84.92;99320.72;5077712;28;20651;-62
2020/12/12 03:40:32;;;;;;;65.23;23.60;;;;;;;0.96;85.13;99326.25;5079654;28;20826;-62
2020/12/12 03:42:59;;;;;;;65.18;25.33;;;;;;;1.05;84.64;99324.22;5077658;28;20792;-62
2020/12/12 03:45:26;;;;;;;69.68;24.45;;;;;;;1.16;84.28;99329.91;5079112;28;20248;-62
2020/12/12 03:47:53;;;;;;;69.43;24.93;;;;;;;0.82;85.19;99328.84;5077849;28;20610;-62
2020/12/12 03:50:27;;;;;;;67.30;23.80;;;;;;;0.84;84.91;99328.94;5079623;28;20512;-62
2020/12/12 03:52:54;;;;;;;69.60;25.23;;;;;;;0.86;84.76;99332.47;5077837;28;20236;-62
2020/12/12 03:55:21;;;;;;;62.15;24.15;;;;;;;0.82;84.84;99339.00;5078781;28;20479;-62
2020/12/12 03:57:47;;;;;;;67.53;25.63;;;;;;;0.76;84.93;99331.03;5077718;28;20200;-62
2020/12/12 04:00:14;;;;;;;73.57;24.93;;;;;;;0.88;85.14;99338.50;5078990;28;20244;-62
2020/12/12 04:02:41;;;;;;;67.75;25.25;;;;;;;0.90;84.62;99345.44;5078162;28;20486;-62
2020/12/12 04:05:09;;;;;;;73.10;24.73;;;;;;;0.93;84.85;99344.72;5078654;28;20235;-62
2020/12/12 04:07:36;;;;;;;73.03;26.48;;;;;;;0.87;85.21;99335.06;5078453;28;20513;-62
2020/12/12 04:10:03;;;;;;;75.43;25.92;;;;;;;0.65;85.33;99333.84;5078834;28;20319;-62
2020/12/12 04:12:29;;;;;;;61.92;25.38;;;;;;;0.89;85.11;99343.69;5079038;28;20655;-62
2020/12/12 04:14:56;;;;;;;64.50;24.50;;;;;;;0.78;85.08;99332.00;5077491;28;20241;-62
2020/12/12 04:17:24;;;;;;;64.40;26.17;;;;;;;0.85;84.67;99336.66;5078759;28;20207;-61
2020/12/12 04:19:50;;;;;;;64.50;23.57;;;;;;;0.77;84.99;99335.34;5078108;28;20239;-62
2020/12/12 04:22:18;;;;;;;73.18;26.40;;;;;;;0.78;84.77;99329.47;5078822;28;20465;-62
2020/12/12 04:24:44;;;;;;;74.07;26.57;;;;;;;0.69;85.00;99334.00;5083824;28;20228;-63
2020/12/12 04:27:11;;;;;;;70.13;24.90;;;;;;;0.75;85.16;99326.75;5098978;28;20527;-62
2020/12/12 04:29:38;;;;;;;61.00;25.60;;;;;;;0.62;85.05;99328.56;5098340;28;20242;-62
2020/12/12 04:32:05;;;;;;;61.00;24.40;;;;;;;0.70;85.24;99325.59;5099082;28;20200;-62
2020/12/12 04:34:32;;;;;;;70.38;25.70;;;;;;;0.69;84.78;99323.84;5097615;28;20577;-62
2020/12/12 04:36:59;;;;;;;72.70;27.15;;;;;;;0.66;85.25;99330.50;5098428;28;20196;-62
2020/12/12 04:39:26;;;;;;;64.15;24.13;;;;;;;0.86;84.55;99335.88;5097599;28;20228;-62
2020/12/12 04:41:53;;;;;;;66.15;26.67;;;;;;;0.85;84.90;99330.69;5098478;28;20311;-62
2020/12/12 04:44:20;;;;;;;64.15;24.58;;;;;;;0.63;85.56;99324.38;5097359;28;20320;-62
2020/12/12 04:46:48;;;;;;;72.03;25.50;;;;;;;0.65;85.52;99331.31;5098665;28;20224;-62
2020/12/12 04:49:14;;;;;;;67.50;24.90;;;;;;;0.76;85.95;99325.94;5097523;28;20236;-62
2020/12/12 04:51:44;;;;;;;77.88;26.27;;;;;;;0.71;85.34;99327.38;5098781;28;20213;-62
2020/12/12 04:54:12;;;;;;;71.70;27.05;;;;;;;0.77;85.10;99320.97;5097442;28;20236;-62
2020/12/12 04:56:41;;;;;;;73.00;25.80;;;;;;;0.76;85.04;99320.88;5098569;28;20200;-62
2020/12/12 04:59:07;;;;;;;73.18;25.15;;;;;;;0.65;85.21;99318.59;5097674;28;20244;-62
2020/12/12 05:01:34;;;;;;;71.32;25.83;;;;;;;0.70;85.26;99313.78;5098392;28;20283;-62
2020/12/12 05:04:02;;;;;;;67.80;26.10;;;;;;;0.51;85.80;99315.25;5095830;28;20666;-62
2020/12/12 05:06:29;;;;;;;69.55;25.50;;;;;;;0.71;85.22;99327.38;5098165;28;20205;-62
2020/12/12 05:08:56;;;;;;;69.13;24.73;;;;;;;0.55;85.86;99329.00;5096645;28;20661;-62
2020/12/12 05:11:23;;;;;;;85.22;27.77;;;;;;;0.58;85.43;99329.19;5098073;28;20200;-62
2020/12/12 05:13:50;;;;;;;82.30;27.25;;;;;;;0.58;85.92;99331.72;5096353;28;20529;-62
2020/12/12 05:16:18;;;;;;;71.30;24.08;;;;;;;0.52;85.80;99338.97;5097719;28;20512;-62
2020/12/12 05:18:45;;;;;;;79.10;27.48;;;;;;;0.48;85.85;99337.03;5095155;28;20267;-62
2020/12/12 05:21:12;;;;;;;73.07;25.77;;;;;;;0.62;85.40;99332.78;5097728;28;20297;-62
2020/12/12 05:23:39;;;;;;;69.60;25.75;;;;;;;0.57;85.83;99340.13;5096289;28;20235;-62
2020/12/12 05:26:06;;;;;;;83.18;27.15;;;;;;;0.50;85.73;99338.00;5097344;28;20231;-62
2020/12/12 05:28:33;;;;;;;72.30;26.48;;;;;;;0.67;85.25;99334.78;5090975;28;20314;-62
2020/12/12 05:31:00;;;;;;;68.40;26.15;;;;;;;0.54;85.95;99334.84;5097827;28;20200;-62
2020/12/12 05:33:27;;;;;;;62.85;24.42;;;;;;;0.45;85.94;99336.88;5096030;28;20548;-62
2020/12/12 05:35:54;;;;;;;73.30;24.90;;;;;;;0.51;85.98;99337.22;5097133;28;20635;-62
2020/12/12 05:38:21;;;;;;;83.13;28.90;;;;;;;0.53;85.80;99338.19;5096357;28;20232;-62
2020/12/12 05:40:52;;;;;;;80.32;28.83;;;;;;;0.49;85.94;99336.25;5097660;28;20200;-62
2020/12/12 05:43:19;;;;;;;63.80;24.10;;;;;;;0.55;86.02;99336.59;5090045;28;20255;-62
2020/12/12 05:45:45;;;;;;;90.07;28.20;;;;;;;0.67;85.59;99336.47;5097027;28;20230;-62
2020/12/12 05:48:13;;;;;;;93.95;26.90;;;;;;;0.66;85.31;99335.59;5095392;28;20542;-62
2020/12/12 05:50:40;;;;;;;79.50;28.33;;;;;;;0.57;85.45;99331.63;5097689;28;20196;-62
2020/12/12 05:53:07;;;;;;;85.15;27.30;;;;;;;0.65;85.39;99335.47;5095907;28;20238;-62
2020/12/12 05:55:35;;;;;;;71.22;26.42;;;;;;;0.58;85.71;99336.81;5096779;28;20230;-62
2020/12/12 05:58:02;;;;;;;122.90;42.33;;;;;;;0.70;86.62;99341.72;5095662;28;20235;-62
2020/12/12 06:00:30;;;;;;;89.68;31.73;;;;;;;0.66;85.90;99340.66;5097257;28;20501;-62
2020/12/12 06:02:59;;;;;;;88.22;31.20;;;;;;;0.69;86.36;99346.69;5095561;28;20285;-62
2020/12/12 06:05:28;;;;;;;83.23;28.23;;;;;;;0.70;85.99;99353.53;5096800;28;20216;-62
2020/12/12 06:07:56;;;;;;;69.97;26.20;;;;;;;0.57;86.06;99355.38;5095466;28;20444;-62
2020/12/12 06:10:26;;;;;;;87.75;31.05;;;;;;;0.51;86.83;99358.41;5097170;28;20287;-62
2020/12/12 06:13:03;;;;;;;75.75;25.88;;;;;;;0.53;86.54;99358.50;5095524;28;20199;-62
2020/12/12 06:15:37;;;;;;;77.13;28.52;;;;;;;0.65;86.49;99354.16;5096424;28;20227;-62
2020/12/12 06:18:21;;;;;;;82.35;30.38;;;;;;;0.67;86.63;99365.25;5095171;28;20230;-62
2020/12/12 06:20:50;;;;;;;84.05;29.77;;;;;;;0.62;86.92;99359.03;5096299;28;20303;-62
2020/12/12 06:23:18;;;;;;;77.28;27.70;;;;;;;0.70;85.87;99362.03;5095236;28;20246;-62
2020/12/12 06:25:44;;;;;;;77.38;28.30;;;;;;;0.52;86.81;99357.59;5096179;28;20315;-62
2020/12/12 06:28:16;;;;;;;82.15;27.08;;;;;;;0.67;86.65;99360.19;5095145;28;20271;-62
2020/12/12 06:30:43;;;;;;;86.68;28.98;;;;;;;0.72;86.49;99360.44;5096791;28;20199;-62
2020/12/12 06:33:10;;;;;;;84.38;29.95;;;;;;;0.72;86.77;99360.44;5095073;28;20246;-62
2020/12/12 06:35:38;;;;;;;69.55;26.33;;;;;;;0.57;87.03;99362.09;5096259;28;20224;-62
2020/12/12 06:38:21;;;;;;;78.50;28.55;;;;;;;0.66;86.72;99366.06;5094771;28;20592;-62
2020/12/12 06:40:49;;;;;;;77.22;26.67;;;;;;;0.60;86.96;99360.59;5096272;28;20498;-62
2020/12/12 06:43:30;;;;;;;81.50;26.90;;;;;;;0.62;86.76;99373.41;5094829;28;20598;-62
2020/12/12 06:45:58;;;;;;;79.90;29.55;;;;;;;0.48;87.07;99378.53;5095986;28;20220;-62
2020/12/12 06:48:26;;;;;;;88.10;26.37;;;;;;;0.40;87.25;99378.06;5094704;28;20246;-62
2020/12/12 06:50:54;;;;;;;81.90;26.90;;;;;;;0.45;87.69;99385.09;5096365;28;20515;-62
2020/12/12 06:53:23;;;;;;;80.90;26.67;;;;;;;0.62;87.37;99383.56;5094848;28;20236;-62
2020/12/12 06:56:07;;;;;;;82.00;26.80;;;;;;;0.56;87.22;99399.28;5096002;28;20231;-62
2020/12/12 06:58:34;;;;;;;79.00;26.30;;;;;;;0.46;87.55;99382.63;5094744;28;20259;-62
2020/12/12 07:01:25;;;;;;;86.50;28.02;;;;;;;0.60;87.11;99388.53;5095254;28;20235;-62
2020/12/12 07:03:56;;;;;;;72.53;26.52;;;;;;;0.64;86.95;99382.88;5094794;28;20236;-62
2020/12/12 07:06:25;;;;;;;81.83;26.87;;;;;;;0.59;86.88;99381.72;5095898;28;20675;-62
2020/12/12 07:08:52;;;;;;;80.30;27.90;;;;;;;0.49;87.47;99387.00;5094921;28;20474;-62
2020/12/12 07:11:24;;;;;;;88.17;27.77;;;;;;;0.52;87.73;99387.22;5096164;28;20454;-62
2020/12/12 07:13:52;;;;;;;76.05;27.48;;;;;;;0.56;87.64;99389.13;5093814;28;20472;-62
2020/12/12 07:16:20;;;;;;;82.87;28.43;;;;;;;0.53;87.48;99399.09;5095970;28;20378;-62
2020/12/12 07:18:48;;;;;;;73.18;26.25;;;;;;;0.62;87.13;99389.50;5094615;28;20557;-62
2020/12/12 07:21:15;;;;;;;90.45;27.45;;;;;;;0.54;87.59;99390.72;5096131;28;20294;-62
2020/12/12 07:23:42;;;;;;;79.07;26.83;;;;;;;0.55;87.67;99389.91;5094462;28;20259;-62
2020/12/12 07:26:09;;;;;;;78.00;29.52;;;;;;;0.52;87.91;99395.69;5095471;28;20522;-62
2020/12/12 07:28:36;;;;;;;84.43;28.08;;;;;;;0.63;87.07;99400.53;5094156;28;20240;-61
2020/12/12 07:31:02;;;;;;;79.97;28.52;;;;;;;0.43;87.99;99404.41;5096134;28;20295;-62
2020/12/12 07:33:29;;;;;;;81.40;29.07;;;;;;;0.51;87.76;99418.47;5094487;28;20310;-62
2020/12/12 07:35:56;;;;;;;91.32;30.20;;;;;;;0.46;88.03;99419.84;5095620;28;20556;-62
2020/12/12 07:38:23;;;;;;;76.23;27.10;;;;;;;0.60;88.68;99410.50;5094257;28;20629;-62
2020/12/12 07:40:50;;;;;;;90.82;30.92;;;;;;;0.77;90.33;99424.22;5095712;28;20461;-62
2020/12/12 07:43:17;;;;;;;94.47;29.85;;;;;;;0.63;88.66;99421.75;5094206;28;20311;-62
2020/12/12 07:45:57;;;;;;;84.68;31.70;;;;;;;0.86;87.54;99429.84;5095299;28;20669;-62
2020/12/12 07:48:23;;;;;;;81.32;28.10;;;;;;;0.83;87.93;99421.16;5094212;28;20235;-62
2020/12/12 07:50:50;;;;;;;92.23;29.20;;;;;;;0.71;87.69;99428.94;5095717;28;20318;-62
2020/12/12 07:53:18;;;;;;;100.88;33.50;;;;;;;0.69;88.84;99426.28;5094175;28;20478;-61
2020/12/12 07:55:53;;;;;;;89.47;28.75;;;;;;;0.75;88.28;99428.31;5095461;28;20231;-62
2020/12/12 07:58:23;;;;;;;93.18;31.30;;;;;;;0.88;88.81;99427.41;5094272;28;20323;-62
2020/12/12 08:00:57;;;;;;;85.47;30.20;;;;;;;0.74;87.37;99432.53;5095572;28;20209;-62
2020/12/12 08:03:24;;;;;;;93.88;30.52;;;;;;;0.77;87.44;99431.84;5094284;28;20281;-62
2020/12/12 08:06:03;;;;;;;92.57;30.35;;;;;;;0.90;88.29;99441.94;5095147;28;20686;-62
2020/12/12 08:08:30;;;;;;;95.45;30.50;;;;;;;0.84;88.37;99441.56;5094256;28;20605;-62
2020/12/12 08:10:58;;;;;;;88.65;30.33;;;;;;;0.69;87.89;99443.19;5096152;28;20201;-62
2020/12/12 08:13:27;;;;;;;94.85;29.90;;;;;;;0.77;88.22;99447.94;5097507;28;20323;-62
2020/12/12 08:16:03;;;;;;;92.25;30.73;;;;;;;0.83;88.10;99455.06;5098396;28;20228;-62
2020/12/12 08:18:30;;;;;;;82.27;28.47;;;;;;;0.81;88.05;99461.69;5094912;28;20232;-62
2020/12/12 08:21:09;;;;;;;84.53;29.50;;;;;;;0.73;88.48;99468.88;5098538;28;20508;-62
2020/12/12 08:23:37;;;;;;;81.35;28.95;;;;;;;0.64;88.91;99469.19;5097374;28;20481;-62
2020/12/12 08:26:05;;;;;;;86.90;29.17;;;;;;;0.73;88.89;99462.91;5098471;28;20224;-62
2020/12/12 08:28:33;;;;;;;100.97;32.57;;;;;;;0.66;88.95;99471.78;5097160;28;20488;-62
2020/12/12 08:31:10;;;;;;;94.05;32.60;;;;;;;0.73;88.95;99468.88;5098531;28;20550;-62
2020/12/12 08:33:38;;;;;;;92.68;29.38;;;;;;;0.87;88.50;99467.13;5097292;28;20259;-62
2020/12/12 08:36:17;;;;;;;85.67;31.77;;;;;;;0.73;88.79;99468.88;5098203;28;20224;-62
2020/12/12 08:38:51;;;;;;;102.03;33.37;;;;;;;0.73;88.92;99466.34;5094174;28;20452;-62
2020/12/12 08:41:18;;;;;;;87.90;31.23;;;;;;;0.78;88.84;99477.63;5098487;28;20459;-63
2020/12/12 08:43:46;;;;;;;81.13;29.85;;;;;;;0.70;88.80;99481.38;5096855;28;20315;-62
2020/12/12 08:46:14;;;;;;;85.10;30.43;;;;;;;0.84;88.33;99471.16;5098080;28;20207;-62
2020/12/12 08:48:41;;;;;;;93.82;31.90;;;;;;;0.90;88.42;99476.59;5096991;28;20751;-62
2020/12/12 08:51:09;;;;;;;91.77;30.23;;;;;;;1.02;88.02;99471.41;5098096;28;20300;-63
2020/12/12 08:53:37;;;;;;;88.47;30.67;;;;;;;0.84;87.80;99479.66;5091060;28;20761;-62
2020/12/12 08:56:12;;;;;;;90.28;30.75;;;;;;;0.87;88.16;99477.31;5097794;28;20929;-63
2020/12/12 08:58:40;;;;;;;87.68;27.55;;;;;;;0.78;88.01;99482.69;5095142;28;20231;-63
2020/12/12 09:01:22;;;;;;;81.53;29.67;;;;;;;0.86;88.00;99470.47;5097955;28;20208;-62
2020/12/12 09:03:54;;;;;;;87.70;29.50;;;;;;;0.83;88.03;99480.47;5096242;28;20462;-62
2020/12/12 09:06:21;;;;;;;99.70;29.97;;;;;;;0.89;87.94;99479.94;5097443;28;20541;-62
2020/12/12 09:08:48;;;;;;;81.40;28.45;;;;;;;0.93;87.60;99484.44;5096367;28;20452;-62
2020/12/12 09:11:16;;;;;;;92.13;29.50;;;;;;;0.92;87.63;99482.69;5097448;28;20197;-62
2020/12/12 09:13:43;;;;;;;89.23;29.97;;;;;;;0.89;87.73;99482.47;5096176;28;20460;-62
2020/12/12 09:16:10;;;;;;;88.50;29.93;;;;;;;0.97;87.23;99488.88;5097405;28;20452;-62
2020/12/12 09:18:48;;;;;;;96.63;32.40;;;;;;;0.97;87.80;99495.66;5096123;28;20527;-62
2020/12/12 09:21:14;;;;;;;81.03;29.00;;;;;;;1.16;86.77;99495.97;5097613;28;20432;-62
2020/12/12 09:23:41;;;;;;;84.60;29.20;;;;;;;1.20;86.95;99504.63;5095090;28;20513;-62
2020/12/12 09:26:08;;;;;;;83.00;29.27;;;;;;;1.28;86.03;99500.00;5097224;28;20475;-62
2020/12/12 09:28:36;;;;;;;82.47;31.57;;;;;;;1.26;86.33;99501.56;5095956;28;20449;-62
2020/12/12 09:31:03;;;;;;;77.50;29.97;;;;;;;1.07;86.49;99506.44;5097455;28;20520;-62
2020/12/12 09:33:29;;;;;;;80.97;28.05;;;;;;;1.12;86.83;99509.25;5095695;28;20482;-62
2020/12/12 09:35:57;;;;;;;82.93;29.40;;;;;;;1.19;86.45;99505.44;5097258;28;20220;-62
2020/12/12 09:38:23;;;;;;;81.60;27.90;;;;;;;1.16;86.72;99513.75;5095377;28;20449;-62
2020/12/12 09:40:51;;;;;;;80.20;28.70;;;;;;;1.17;86.81;99512.94;5097471;28;20883;-62
2020/12/12 09:43:33;;;;;;;79.43;29.90;;;;;;;1.04;87.40;99518.09;5095272;28;20966;-62
2020/12/12 09:46:00;;;;;;;90.43;30.70;;;;;;;0.91;87.75;99519.88;5096779;28;20539;-62
2020/12/12 09:48:26;;;;;;;80.13;28.33;;;;;;;1.02;87.42;99524.75;5095689;28;20263;-61
2020/12/12 09:50:53;;;;;;;91.83;30.07;;;;;;;1.00;87.34;99521.22;5097289;28;20527;-62
2020/12/12 09:53:21;;;;;;;79.07;29.50;;;;;;;1.00;87.38;99523.75;5095473;28;20528;-62
2020/12/12 09:55:48;;;;;;;83.03;30.23;;;;;;;1.07;87.06;99520.81;5096466;28;20937;-61
2020/12/12 09:58:14;;;;;;;86.82;32.13;;;;;;;1.04;87.35;99521.50;5095127;28;20490;-57
2020/12/12 10:00:42;;;;;;;78.20;31.20;;;;;;;1.05;87.40;99523.28;5097386;28;20246;-58
2020/12/12 10:03:09;;;;;;;80.57;29.20;;;;;;;1.30;86.46;99526.38;5094942;28;21979;-62
2020/12/12 10:05:36;;;;;;;90.20;29.87;;;;;;;1.20;86.52;99527.50;5096304;28;20479;-61
2020/12/12 10:08:04;;;;;;;89.20;30.63;;;;;;;1.04;87.21;99520.63;5084684;28;20554;-61
2020/12/12 10:10:32;;;;;;;82.17;28.73;;;;;;;1.10;87.32;99521.00;5075711;28;20549;-57
2020/12/12 10:12:59;;;;;;;91.53;31.77;;;;;;;1.23;86.66;99514.09;5073940;28;20471;-59
2020/12/12 10:15:26;;;;;;;74.30;28.37;;;;;;;1.17;86.94;99530.75;5075262;28;20508;-57
2020/12/12 10:17:53;;;;;;;85.10;29.90;;;;;;;1.26;86.61;99526.97;5073683;28;20471;-55
2020/12/12 10:20:20;;;;;;;81.23;30.23;;;;;;;1.12;86.72;99532.13;5075548;28;20466;-61
2020/12/12 10:22:47;;;;;;;72.60;28.87;;;;;;;1.29;86.06;99527.19;5073829;28;20486;-62
2020/12/12 10:25:14;;;;;;;71.60;30.30;;;;;;;1.17;86.50;99538.38;5086798;28;20794;-58
2020/12/12 10:27:43;;;;;;;96.50;32.40;;;;;;;1.20;86.59;99536.03;5093971;28;20456;-60
2020/12/12 10:30:11;;;;;;;83.00;28.97;;;;;;;1.08;87.07;99532.75;5095527;28;20930;-59
2020/12/12 10:32:38;;;;;;;76.73;28.70;;;;;;;1.27;86.71;99529.63;5094271;28;20436;-59
2020/12/12 10:35:06;;;;;;;75.50;29.80;;;;;;;1.23;86.63;99537.84;5095291;28;20483;-58
2020/12/12 10:37:33;;;;;;;85.20;31.57;;;;;;;1.25;86.46;99530.31;5095994;28;20496;-61
2020/12/12 10:40:08;;;;;;;80.03;28.93;;;;;;;1.29;86.33;99528.03;5094701;28;20447;-59
2020/12/12 10:42:34;;;;;;;69.03;28.47;;;;;;;1.42;86.23;99523.69;5094462;28;20554;-62
2020/12/12 10:45:03;;;;;;;77.10;29.60;;;;;;;1.41;85.75;99533.00;5095452;28;20464;-58
2020/12/12 10:47:29;;;;;;;68.50;30.73;;;;;;;1.28;85.75;99531.38;5095886;28;20767;-57
2020/12/12 10:49:56;;;;;;;81.97;28.27;;;;;;;1.32;85.67;99535.84;5093907;28;20601;-58
2020/12/12 10:52:35;;;;;;;76.23;29.57;;;;;;;1.47;85.49;99540.97;5094097;28;20457;-59
2020/12/12 10:55:03;;;;;;;84.67;28.20;;;;;;;1.35;85.70;99547.88;5095694;28;20568;-60
2020/12/12 10:57:29;;;;;;;72.67;28.20;;;;;;;1.60;85.23;99545.09;5096089;28;20425;-60
2020/12/12 10:59:56;;;;;;;76.73;29.40;;;;;;;1.51;84.86;99553.84;5094149;28;20463;-57
2020/12/12 11:02:23;;;;;;;78.27;28.80;;;;;;;1.38;85.29;99553.13;5095766;28;20455;-60
2020/12/12 11:04:50;;;;;;;84.77;28.40;;;;;;;1.51;84.91;99557.28;5093709;28;20481;-61
2020/12/12 11:07:17;;;;;;;70.57;29.37;;;;;;;1.45;84.96;99550.16;5096090;28;20906;-61
2020/12/12 11:09:44;;;;;;;73.63;29.37;;;;;;;1.49;85.08;99563.94;5093830;28;20472;-58
2020/12/12 11:12:12;;;;;;;87.70;35.40;;;;;;;1.58;85.98;99553.41;5095877;28;20432;-56
2020/12/12 11:14:39;;;;;;;76.30;28.50;;;;;;;1.70;84.51;99551.59;5093782;28;20523;-61
2020/12/12 11:17:05;;;;;;;72.77;29.30;;;;;;;1.80;83.85;99557.22;5095795;28;20472;-60
2020/12/12 11:19:33;;;;;;;74.87;28.60;;;;;;;1.60;84.17;99557.81;5094226;28;20568;-60
2020/12/12 11:22:00;;;;;;;69.37;28.17;;;;;;;1.53;84.37;99563.31;5096019;28;20439;-62
2020/12/12 11:24:26;;;;;;;66.03;27.00;;;;;;;1.61;84.30;99556.16;5090814;28;20542;-61
2020/12/12 11:26:53;;;;;;;63.60;27.27;;;;;;;1.67;84.24;99555.63;5096131;28;20443;-58
2020/12/12 11:29:20;;;;;;;70.03;27.87;;;;;;;1.80;84.11;99562.31;5094272;28;20481;-59